Time;durP1;ratioP1;P1;durP2;ratioP2;P2;SDS_P1;SDS_P2;PMS_P1;PMS_P2;Temp;Humidity;BMP_temperature;BMP_pressure;BME280_temperature;BME280_humidity;BME280_pressure;Samples;Min_cycle;Max_cycle;Signal;HPM_P1;HPM_P2
2023/12/27 00:00:22;;;;;;;1.17;0.80;;;17.20;55.30;;;;;;6165451;23;20126;-87
2023/12/27 00:02:47;;;;;;;1.00;0.68;;;17.20;55.30;;;;;;6164533;23;20141;-84
2023/12/27 00:05:13;;;;;;;1.00;0.90;;;17.10;55.30;;;;;;6187918;23;20134;-84
2023/12/27 00:07:39;;;;;;;1.42;1.00;;;17.10;55.30;;;;;;6189379;23;20134;-85
2023/12/27 00:10:05;;;;;;;0.82;0.80;;;17.20;55.40;;;;;;6164799;23;20233;-84
2023/12/27 00:12:31;;;;;;;1.10;0.90;;;17.20;55.40;;;;;;6163866;23;20130;-86
2023/12/27 00:14:57;;;;;;;1.13;0.80;;;17.10;55.30;;;;;;6164212;23;20161;-85
2023/12/27 00:17:23;;;;;;;0.50;0.50;;;17.10;55.30;;;;;;6189863;23;20585;-84
2023/12/27 00:19:49;;;;;;;0.88;0.80;;;17.10;55.30;;;;;;6162880;23;20568;-88
2023/12/27 00:22:15;;;;;;;1.40;1.00;;;17.10;55.40;;;;;;6164077;23;20209;-86
2023/12/27 00:24:41;;;;;;;1.23;0.90;;;17.10;55.30;;;;;;6214158;23;20129;-84
2023/12/27 00:27:08;;;;;;;1.00;0.80;;;17.10;55.40;;;;;;6138236;23;20146;-85
2023/12/27 00:29:34;;;;;;;1.27;1.10;;;17.10;55.30;;;;;;6163014;23;20154;-85
2023/12/27 00:32:00;;;;;;;1.08;0.77;;;17.10;55.30;;;;;;6138184;23;20589;-84
2023/12/27 00:34:26;;;;;;;1.15;0.80;;;17.10;55.30;;;;;;6187634;23;20137;-86
2023/12/27 00:36:51;;;;;;;1.25;0.98;;;17.00;55.30;;;;;;6215454;23;20656;-85
2023/12/27 00:39:23;;;;;;;0.80;0.77;;;17.10;55.10;;;;;;6187497;23;20134;-83
2023/12/27 00:41:49;;;;;;;1.20;1.00;;;17.10;55.10;;;;;;6190452;23;20215;-86
2023/12/27 00:44:19;;;;;;;1.63;1.10;;;17.10;55.20;;;;;;6139089;23;20230;-84
2023/12/27 00:46:44;;;;;;;1.25;0.90;;;17.10;55.10;;;;;;6088993;23;20532;-82
2023/12/27 00:49:10;;;;;;;2.50;0.77;;;17.10;55.10;;;;;;6138112;23;20614;-85
2023/12/27 00:51:44;;;;;;;1.30;0.80;;;17.10;56.00;;;;;;6164046;23;20150;-84
2023/12/27 00:54:10;;;;;;;1.10;0.90;;;17.10;55.20;;;;;;6136788;23;20529;-84
2023/12/27 00:56:36;;;;;;;2.05;0.90;;;17.00;55.10;;;;;;6138164;23;20178;-83
2023/12/27 00:59:02;;;;;;;1.58;0.90;;;17.10;55.10;;;;;;6164718;23;20158;-85
2023/12/27 01:01:30;;;;;;;1.10;0.80;;;17.10;55.30;;;;;;6164247;23;20438;-83
2023/12/27 01:03:56;;;;;;;1.02;0.80;;;17.10;55.10;;;;;;6139571;23;20142;-85
2023/12/27 01:06:22;;;;;;;1.63;1.00;;;17.10;55.10;;;;;;6164703;23;20142;-84
2023/12/27 01:08:47;;;;;;;1.90;0.77;;;17.10;55.00;;;;;;6140355;23;20146;-84
2023/12/27 01:11:13;;;;;;;1.30;0.77;;;17.10;55.20;;;;;;6167611;23;20554;-84
2023/12/27 01:13:39;;;;;;;1.15;0.80;;;17.10;55.00;;;;;;6190397;23;20134;-83
2023/12/27 01:16:05;;;;;;;1.55;0.93;;;17.10;55.30;;;;;;6191039;23;20186;-84
2023/12/27 01:18:31;;;;;;;1.13;0.80;;;17.10;55.20;;;;;;6188896;23;20139;-85
2023/12/27 01:20:57;;;;;;;1.23;0.80;;;17.10;55.20;;;;;;6139778;23;20141;-85
2023/12/27 01:23:22;;;;;;;2.45;0.90;;;17.10;55.20;;;;;;6138167;23;20138;-86
2023/12/27 01:25:48;;;;;;;1.13;0.70;;;17.00;55.10;;;;;;6181315;23;20210;-83
2023/12/27 01:28:14;;;;;;;1.52;0.85;;;17.10;55.10;;;;;;6158815;23;20645;-83
2023/12/27 01:30:40;;;;;;;1.73;0.82;;;17.00;55.20;;;;;;6187334;23;20648;-86
2023/12/27 01:33:05;;;;;;;1.67;1.00;;;17.00;55.00;;;;;;6163471;23;20150;-85
2023/12/27 01:35:31;;;;;;;1.58;1.10;;;17.10;55.20;;;;;;6162990;23;20170;-86
2023/12/27 01:37:57;;;;;;;1.05;0.70;;;17.00;55.10;;;;;;6162965;23;20445;-85
2023/12/27 01:40:23;;;;;;;1.08;0.82;;;17.00;55.10;;;;;;6162854;23;20211;-85
2023/12/27 01:42:48;;;;;;;0.95;0.85;;;17.00;55.10;;;;;;6188414;23;20138;-85
2023/12/27 01:45:14;;;;;;;1.23;0.90;;;17.10;55.00;;;;;;6187189;23;20157;-84
2023/12/27 01:47:41;;;;;;;1.50;0.80;;;17.10;55.00;;;;;;6137272;23;20524;-84
2023/12/27 01:50:09;;;;;;;1.23;1.00;;;17.00;55.00;;;;;;6215296;23;20126;-84
2023/12/27 01:52:35;;;;;;;0.90;0.80;;;17.00;55.00;;;;;;6163589;23;20146;-86
2023/12/27 01:55:01;;;;;;;1.25;0.90;;;17.00;55.00;;;;;;6153021;23;20206;-85
2023/12/27 01:57:28;;;;;;;0.60;0.60;;;16.90;54.90;;;;;;6157802;23;20142;-84
2023/12/27 01:59:54;;;;;;;1.10;0.98;;;17.00;55.00;;;;;;6109678;23;20155;-83
2023/12/27 02:02:21;;;;;;;1.08;0.80;;;17.00;55.00;;;;;;6151842;23;20290;-86
2023/12/27 02:04:47;;;;;;;1.13;0.85;;;17.00;55.00;;;;;;6138120;23;20552;-84
2023/12/27 02:07:18;;;;;;;1.33;0.90;;;17.00;55.10;;;;;;6158381;23;20193;-83
2023/12/27 02:09:45;;;;;;;1.50;1.02;;;17.00;54.80;;;;;;6107307;23;20155;-84
2023/12/27 02:12:22;;;;;;;1.48;0.90;;;17.00;54.80;;;;;;6181973;23;20146;-87
2023/12/27 02:14:52;;;;;;;1.17;1.00;;;17.00;55.10;;;;;;6182058;23;20150;-86
2023/12/27 02:17:18;;;;;;;1.10;0.95;;;17.00;54.90;;;;;;6157735;23;20282;-86
2023/12/27 02:19:44;;;;;;;1.45;1.10;;;17.00;54.90;;;;;;6182569;23;20143;-85
2023/12/27 02:22:17;;;;;;;1.00;0.90;;;17.00;54.80;;;;;;6182542;23;20689;-86
2023/12/27 02:24:43;;;;;;;1.05;0.80;;;17.00;55.00;;;;;;6159720;23;20153;-85
2023/12/27 02:27:08;;;;;;;1.10;0.90;;;17.00;54.90;;;;;;6182167;23;20257;-84
2023/12/27 02:29:35;;;;;;;1.50;0.90;;;17.10;54.90;;;;;;6133452;23;20150;-86
2023/12/27 02:32:01;;;;;;;1.33;1.00;;;17.00;55.00;;;;;;6182054;23;20182;-86
2023/12/27 02:34:27;;;;;;;1.23;1.00;;;17.00;54.90;;;;;;6182500;23;20138;-86
2023/12/27 02:36:52;;;;;;;1.13;0.80;;;17.00;54.90;;;;;;6157482;23;20504;-84
2023/12/27 02:39:18;;;;;;;0.98;0.68;;;16.90;54.90;;;;;;6156324;23;20150;-85
2023/12/27 02:41:44;;;;;;;0.98;0.80;;;16.90;54.80;;;;;;6181861;23;20135;-84
2023/12/27 02:44:10;;;;;;;0.73;0.70;;;17.00;54.80;;;;;;6186102;23;20209;-87
2023/12/27 02:46:36;;;;;;;1.55;1.08;;;17.00;54.80;;;;;;6162919;23;20790;-86
2023/12/27 02:49:01;;;;;;;1.60;0.60;;;17.00;54.90;;;;;;6139929;23;20473;-84
2023/12/27 02:51:28;;;;;;;0.88;0.80;;;17.00;54.90;;;;;;6140287;23;20180;-86
2023/12/27 02:53:54;;;;;;;1.45;0.90;;;16.90;54.80;;;;;;6114671;23;20153;-85
2023/12/27 02:56:20;;;;;;;1.67;0.93;;;17.00;54.80;;;;;;6164506;23;20188;-84
2023/12/27 02:58:46;;;;;;;1.05;0.93;;;17.00;54.90;;;;;;6164548;23;20134;-85
2023/12/27 03:01:11;;;;;;;2.45;0.93;;;16.90;54.80;;;;;;6165555;23;20177;-86
2023/12/27 03:03:37;;;;;;;1.25;0.85;;;16.90;54.90;;;;;;6165463;23;20448;-85
2023/12/27 03:06:04;;;;;;;1.23;0.93;;;16.90;54.80;;;;;;6188597;23;20469;-85
2023/12/27 03:08:31;;;;;;;1.60;0.93;;;16.90;54.80;;;;;;6165668;23;20134;-84
2023/12/27 03:10:56;;;;;;;1.42;0.90;;;16.90;54.90;;;;;;6216545;23;20130;-85
2023/12/27 03:13:22;;;;;;;1.40;0.93;;;16.90;54.70;;;;;;6165705;23;20451;-85
2023/12/27 03:15:49;;;;;;;0.80;0.80;;;16.90;54.70;;;;;;6164842;23;20182;-85
2023/12/27 03:18:15;;;;;;;1.55;0.90;;;16.90;54.70;;;;;;6189209;23;20197;-84
2023/12/27 03:20:40;;;;;;;1.05;0.80;;;16.90;54.80;;;;;;6190472;23;20166;-85
2023/12/27 03:23:07;;;;;;;2.03;1.10;;;17.00;54.60;;;;;;6216212;23;20209;-84
2023/12/27 03:25:33;;;;;;;1.58;0.90;;;16.90;54.70;;;;;;6139163;23;20158;-86
2023/12/27 03:27:59;;;;;;;0.93;0.82;;;17.00;54.70;;;;;;6165154;23;20601;-84
2023/12/27 03:30:24;;;;;;;1.13;1.02;;;17.00;54.80;;;;;;6128755;23;20210;-84
2023/12/27 03:32:50;;;;;;;1.60;0.88;;;16.90;54.80;;;;;;6154342;23;20797;-85
2023/12/27 03:35:16;;;;;;;0.70;0.70;;;16.90;54.80;;;;;;6155687;23;20135;-85
2023/12/27 03:37:42;;;;;;;0.98;0.80;;;16.90;54.70;;;;;;6156379;23;20144;-85
2023/12/27 03:40:11;;;;;;;1.00;0.90;;;16.90;54.70;;;;;;6133779;23;20532;-85
2023/12/27 03:42:37;;;;;;;1.30;1.00;;;16.90;54.50;;;;;;6134523;23;20162;-84
2023/12/27 03:45:05;;;;;;;1.00;0.90;;;16.90;55.40;;;;;;6159258;23;20135;-86
2023/12/27 03:47:30;;;;;;;0.73;0.68;;;16.90;54.70;;;;;;6109580;23;20229;-85
2023/12/27 03:49:56;;;;;;;0.90;0.80;;;16.90;54.70;;;;;;6160286;23;20181;-87
2023/12/27 03:52:22;;;;;;;1.10;0.82;;;16.90;54.60;;;;;;6167277;23;20198;-86
2023/12/27 03:54:47;;;;;;;1.08;0.80;;;16.90;54.70;;;;;;6189237;23;20600;-84
2023/12/27 03:57:13;;;;;;;1.17;1.05;;;17.00;54.80;;;;;;6189578;23;20645;-87
2023/12/27 03:59:39;;;;;;;1.10;0.80;;;16.90;54.70;;;;;;6164678;23;20489;-84
2023/12/27 04:02:06;;;;;;;1.00;0.80;;;16.90;54.50;;;;;;6165536;23;20150;-86
2023/12/27 04:04:33;;;;;;;1.05;0.90;;;16.90;54.70;;;;;;6216783;23;20192;-84
2023/12/27 04:06:59;;;;;;;1.75;1.10;;;16.90;54.60;;;;;;6165609;23;20146;-86
2023/12/27 04:09:26;;;;;;;2.55;0.93;;;16.90;54.50;;;;;;6188781;23;20146;-86
2023/12/27 04:11:51;;;;;;;0.95;0.82;;;16.90;54.50;;;;;;6164295;23;20485;-85
2023/12/27 04:14:18;;;;;;;0.80;0.80;;;16.90;54.50;;;;;;6164969;23;20597;-85
2023/12/27 04:16:44;;;;;;;1.05;0.90;;;16.90;54.40;;;;;;6189142;23;20158;-85
2023/12/27 04:19:10;;;;;;;0.85;0.70;;;17.00;54.60;;;;;;6164857;23;20147;-83
2023/12/27 04:21:37;;;;;;;1.00;0.90;;;16.90;54.60;;;;;;6164466;23;20566;-84
2023/12/27 04:24:05;;;;;;;1.23;0.90;;;16.90;54.50;;;;;;6137205;23;20488;-84
2023/12/27 04:26:31;;;;;;;1.15;0.80;;;17.00;54.50;;;;;;6113809;23;20162;-84
2023/12/27 04:28:56;;;;;;;0.93;0.85;;;16.90;54.60;;;;;;6189275;23;20588;-85
2023/12/27 04:31:22;;;;;;;1.23;0.70;;;16.90;54.50;;;;;;6215099;23;20157;-85
2023/12/27 04:33:51;;;;;;;1.52;1.00;;;16.90;54.70;;;;;;6163211;23;20145;-85
2023/12/27 04:36:16;;;;;;;0.95;0.85;;;16.90;54.70;;;;;;6113777;23;20561;-85
2023/12/27 04:38:42;;;;;;;0.80;0.73;;;16.90;54.70;;;;;;6165249;23;20134;-83
2023/12/27 04:41:11;;;;;;;1.00;0.82;;;16.90;54.40;;;;;;6188202;23;20253;-87
2023/12/27 04:43:37;;;;;;;0.98;0.85;;;16.90;54.50;;;;;;6124617;23;20685;-84
2023/12/27 04:46:06;;;;;;;1.13;0.93;;;16.90;54.40;;;;;;6099706;23;20227;-85
2023/12/27 04:48:33;;;;;;;1.08;0.85;;;16.90;54.40;;;;;;6100342;23;20152;-83
2023/12/27 04:50:58;;;;;;;0.70;0.70;;;16.90;54.40;;;;;;6183336;23;20201;-85
2023/12/27 04:53:26;;;;;;;0.90;0.80;;;17.00;54.40;;;;;;6139535;23;20149;-85
2023/12/27 04:55:54;;;;;;;0.70;0.70;;;16.90;54.40;;;;;;6114653;23;20223;-86
2023/12/27 04:58:20;;;;;;;1.00;0.90;;;16.90;54.30;;;;;;6090701;23;20186;-84
2023/12/27 05:00:47;;;;;;;0.93;0.80;;;16.90;54.40;;;;;;6188976;23;20184;-86
2023/12/27 05:03:13;;;;;;;0.80;0.80;;;16.90;54.50;;;;;;6138004;23;20585;-84
2023/12/27 05:05:40;;;;;;;1.63;0.73;;;16.90;54.50;;;;;;6139302;23;20146;-83
2023/12/27 05:08:05;;;;;;;1.30;1.00;;;16.90;54.50;;;;;;6212234;23;20201;-83
2023/12/27 05:10:31;;;;;;;1.15;0.80;;;16.90;54.50;;;;;;6163599;23;20204;-85
2023/12/27 05:12:57;;;;;;;1.35;0.90;;;16.90;54.50;;;;;;6139444;23;20185;-84
2023/12/27 05:17:48;;;;;;;0.77;0.73;;;16.90;54.50;;;;;;6215047;22;20201;-85
2023/12/27 05:20:14;;;;;;;1.30;0.80;;;16.90;54.50;;;;;;6163450;23;20158;-83
2023/12/27 05:22:40;;;;;;;0.70;0.65;;;16.80;54.40;;;;;;6163241;23;20173;-86
2023/12/27 05:25:07;;;;;;;2.00;1.00;;;16.80;54.50;;;;;;6163592;23;20573;-86
2023/12/27 05:27:33;;;;;;;1.13;0.73;;;16.90;54.50;;;;;;6163837;23;20126;-86
2023/12/27 05:29:58;;;;;;;1.38;0.75;;;16.80;54.50;;;;;;6164516;23;20161;-84
2023/12/27 05:32:24;;;;;;;0.88;0.80;;;16.90;54.50;;;;;;6162925;23;20161;-86
2023/12/27 05:34:52;;;;;;;1.35;0.90;;;16.80;54.50;;;;;;6157655;23;20202;-83
2023/12/27 05:37:18;;;;;;;1.13;0.75;;;16.80;54.40;;;;;;6133931;23;20179;-85
2023/12/27 05:39:43;;;;;;;1.10;0.80;;;16.80;54.30;;;;;;6182695;23;20135;-85
2023/12/27 05:42:09;;;;;;;0.80;0.80;;;16.80;54.40;;;;;;6129095;23;20708;-84
2023/12/27 05:44:39;;;;;;;1.23;0.90;;;16.80;54.40;;;;;;6155221;23;20144;-85
2023/12/27 05:47:05;;;;;;;1.02;0.93;;;16.80;54.30;;;;;;6102539;23;20193;-86
2023/12/27 05:49:30;;;;;;;1.48;0.82;;;16.90;54.30;;;;;;6129527;23;20148;-85
2023/12/27 05:51:56;;;;;;;1.33;0.85;;;16.90;54.40;;;;;;6134055;23;20198;-84
2023/12/27 05:54:23;;;;;;;1.15;0.85;;;16.80;54.30;;;;;;6134313;23;20161;-84
2023/12/27 05:56:49;;;;;;;0.93;0.70;;;16.90;54.20;;;;;;6133616;23;20178;-85
2023/12/27 05:59:15;;;;;;;0.93;0.77;;;16.90;54.30;;;;;;6158712;23;20134;-86
2023/12/27 06:01:52;;;;;;;1.23;0.90;;;16.90;54.40;;;;;;6134382;23;20147;-86
2023/12/27 06:04:18;;;;;;;0.88;0.88;;;16.80;54.30;;;;;;6136337;23;20185;-86
2023/12/27 06:06:44;;;;;;;1.00;0.77;;;16.80;54.40;;;;;;6110169;23;20143;-85
2023/12/27 06:09:10;;;;;;;1.35;0.82;;;16.80;54.40;;;;;;6134440;23;20153;-86
2023/12/27 06:11:38;;;;;;;1.15;0.88;;;16.80;54.40;;;;;;6133616;23;20274;-86
2023/12/27 06:14:04;;;;;;;1.17;0.70;;;16.80;54.30;;;;;;6110389;23;20166;-85
2023/12/27 06:16:30;;;;;;;1.50;1.00;;;16.80;54.10;;;;;;6158093;23;20196;-86
2023/12/27 06:18:58;;;;;;;1.30;0.98;;;16.80;54.30;;;;;;6157264;23;20131;-84
2023/12/27 06:23:51;;;;;;;1.17;0.85;;;16.80;54.30;;;;;;6214564;23;20779;-86
2023/12/27 06:26:17;;;;;;;0.77;0.75;;;16.80;54.40;;;;;;6187414;23;20196;-83
2023/12/27 06:28:45;;;;;;;1.10;0.90;;;16.80;54.20;;;;;;6163666;23;20272;-85
2023/12/27 06:31:11;;;;;;;1.60;1.00;;;16.80;54.30;;;;;;6114743;23;20154;-84
2023/12/27 06:33:37;;;;;;;1.38;0.80;;;16.80;54.30;;;;;;6188446;23;20188;-84
2023/12/27 06:36:08;;;;;;;1.27;0.95;;;16.80;54.20;;;;;;6214917;23;20657;-84
2023/12/27 06:38:36;;;;;;;2.55;1.25;;;16.80;54.40;;;;;;6113435;23;20240;-84
2023/12/27 06:41:03;;;;;;;1.17;1.05;;;16.80;54.50;;;;;;6136628;23;20241;-85
2023/12/27 06:43:31;;;;;;;1.75;0.80;;;16.90;54.30;;;;;;6188047;23;20131;-86
2023/12/27 06:45:59;;;;;;;1.17;0.90;;;16.80;54.20;;;;;;6113377;23;20162;-85
2023/12/27 06:53:19;;;;;;;0.88;0.75;;;16.80;54.20;;;;;;6214796;23;20208;-84
2023/12/27 06:55:47;;;;;;;1.30;0.82;;;16.80;54.30;;;;;;6139806;23;20189;-85
2023/12/27 06:58:15;;;;;;;1.20;0.73;;;16.80;54.40;;;;;;6116924;23;20176;-85
2023/12/27 07:00:43;;;;;;;1.15;0.88;;;16.80;54.40;;;;;;6118990;23;20608;-84
2023/12/27 07:03:11;;;;;;;1.13;0.90;;;16.80;54.30;;;;;;6119231;23;20161;-85
2023/12/27 07:05:39;;;;;;;0.90;0.88;;;16.80;54.40;;;;;;6119630;23;20158;-85
2023/12/27 07:08:07;;;;;;;0.60;0.60;;;16.70;54.40;;;;;;6117597;23;20154;-84
2023/12/27 07:10:34;;;;;;;0.70;0.70;;;16.80;54.60;;;;;;6165814;23;20224;-85
2023/12/27 07:13:02;;;;;;;1.13;0.70;;;16.70;54.40;;;;;;6092594;23;20570;-84
2023/12/27 07:15:31;;;;;;;1.00;0.90;;;16.80;53.90;;;;;;6116528;23;20186;-86
2023/12/27 07:17:59;;;;;;;1.27;0.93;;;16.80;53.80;;;;;;6091544;23;20153;-84
2023/12/27 07:20:26;;;;;;;1.17;0.70;;;16.80;53.70;;;;;;6138968;23;20155;-84
2023/12/27 07:25:25;;;;;;;1.30;0.77;;;16.90;53.30;;;;;;6185950;23;20167;-84
2023/12/27 07:27:52;;;;;;;0.90;0.80;;;17.00;53.70;;;;;;6133989;23;20155;-85
2023/12/27 07:30:21;;;;;;;1.42;0.82;;;17.00;53.60;;;;;;6183087;23;20249;-84
2023/12/27 07:32:48;;;;;;;2.05;1.00;;;17.00;53.80;;;;;;6159008;23;20150;-85
2023/12/27 07:35:15;;;;;;;1.13;0.90;;;16.90;53.30;;;;;;6159930;23;20208;-84
2023/12/27 07:37:42;;;;;;;0.60;0.60;;;17.00;53.80;;;;;;6159952;23;20159;-84
2023/12/27 07:40:10;;;;;;;1.80;0.77;;;17.00;53.40;;;;;;6206812;23;20254;-85
2023/12/27 07:45:59;;;;;;;1.15;0.90;;;17.00;53.30;;;;;;6215702;23;20206;-85
2023/12/27 07:48:26;;;;;;;0.73;0.50;;;17.00;53.50;;;;;;6091809;23;20154;-85
2023/12/27 07:50:52;;;;;;;1.23;0.70;;;17.00;53.10;;;;;;6116654;23;20149;-86
2023/12/27 07:53:19;;;;;;;1.35;0.73;;;17.10;53.10;;;;;;6139520;23;20677;-87
2023/12/27 07:55:45;;;;;;;0.85;0.60;;;17.00;53.10;;;;;;6127636;23;20207;-84
2023/12/27 07:58:11;;;;;;;1.13;0.90;;;17.00;53.10;;;;;;6155089;23;20170;-85
2023/12/27 08:00:40;;;;;;;1.13;1.00;;;17.00;53.30;;;;;;6131845;23;20152;-83
2023/12/27 08:03:08;;;;;;;0.90;0.70;;;17.00;53.40;;;;;;6107770;23;20618;-85
2023/12/27 08:05:38;;;;;;;0.98;0.70;;;17.00;53.60;;;;;;6109655;23;20158;-84
2023/12/27 08:08:06;;;;;;;1.73;0.70;;;16.90;53.50;;;;;;6107398;23;20611;-84
2023/12/27 08:10:34;;;;;;;0.70;0.70;;;17.00;53.60;;;;;;6083147;23;20577;-85
2023/12/27 08:13:02;;;;;;;0.80;0.80;;;17.00;53.30;;;;;;6106275;23;20258;-85
2023/12/27 08:15:46;;;;;;;1.13;0.77;;;17.00;53.70;;;;;;6131999;23;20210;-85
2023/12/27 08:18:15;;;;;;;1.23;0.70;;;17.00;53.30;;;;;;6081351;23;20151;-84
2023/12/27 08:20:44;;;;;;;0.90;0.70;;;17.00;53.90;;;;;;6106028;23;20478;-83
2023/12/27 08:23:16;;;;;;;0.77;0.77;;;17.00;54.20;;;;;;6106204;23;20158;-83
2023/12/27 08:25:45;;;;;;;1.02;0.77;;;17.00;53.90;;;;;;6107176;23;20155;-84
2023/12/27 08:28:11;;;;;;;1.23;0.80;;;17.00;53.70;;;;;;6129737;23;20155;-85
2023/12/27 08:30:40;;;;;;;1.20;0.80;;;17.00;53.10;;;;;;6131427;23;20146;-84
2023/12/27 08:33:09;;;;;;;1.58;0.98;;;17.00;53.40;;;;;;6082056;23;20155;-84
2023/12/27 08:35:35;;;;;;;0.60;0.60;;;17.10;53.40;;;;;;6105502;23;20266;-84
2023/12/27 08:38:05;;;;;;;1.38;0.80;;;17.10;53.50;;;;;;6130025;23;20131;-85
2023/12/27 08:40:34;;;;;;;0.90;0.60;;;17.00;53.20;;;;;;6105513;23;20182;-84
2023/12/27 08:43:02;;;;;;;0.73;0.70;;;17.10;52.90;;;;;;6105712;23;20179;-84
2023/12/27 08:45:31;;;;;;;0.70;0.70;;;17.10;52.80;;;;;;6105649;23;20147;-84
2023/12/27 08:47:59;;;;;;;0.80;0.70;;;17.20;52.70;;;;;;6081771;23;20583;-85
2023/12/27 08:50:27;;;;;;;0.88;0.60;;;17.20;52.90;;;;;;6105379;23;20155;-84
2023/12/27 08:52:56;;;;;;;0.50;0.50;;;17.20;52.50;;;;;;6129910;23;20148;-84
2023/12/27 08:55:21;;;;;;;0.73;0.50;;;17.20;52.80;;;;;;6107981;23;20587;-84
2023/12/27 08:57:50;;;;;;;2.00;0.57;;;17.20;53.00;;;;;;6135434;23;20163;-85
2023/12/27 09:00:19;;;;;;;1.17;0.57;;;17.10;52.90;;;;;;6086312;23;20158;-84
2023/12/27 09:02:47;;;;;;;0.85;0.68;;;17.10;52.90;;;;;;6112997;23;20189;-84
2023/12/27 09:05:15;;;;;;;0.85;0.77;;;17.10;53.20;;;;;;6090262;23;20209;-84
2023/12/27 09:07:43;;;;;;;0.93;0.60;;;17.10;53.20;;;;;;6113306;23;20197;-86
2023/12/27 09:10:12;;;;;;;1.50;0.60;;;17.10;53.70;;;;;;6115463;23;20201;-85
2023/12/27 09:12:43;;;;;;;0.60;0.60;;;17.00;52.60;;;;;;6116569;23;20234;-84
2023/12/27 09:15:11;;;;;;;1.90;0.85;;;17.10;53.20;;;;;;6115925;23;20583;-85
2023/12/27 09:17:39;;;;;;;0.80;0.70;;;17.20;53.20;;;;;;6111902;23;20170;-86
2023/12/27 09:20:10;;;;;;;1.02;0.60;;;17.10;53.00;;;;;;6136844;23;20234;-86
2023/12/27 09:22:37;;;;;;;0.75;0.60;;;17.20;53.00;;;;;;6137990;23;20233;-86
2023/12/27 09:25:05;;;;;;;1.02;0.77;;;17.20;52.90;;;;;;6111122;23;20182;-84
2023/12/27 09:27:33;;;;;;;0.77;0.60;;;17.10;53.00;;;;;;6086506;23;20159;-86
2023/12/27 09:30:00;;;;;;;0.93;0.73;;;17.20;52.80;;;;;;6111462;23;20151;-87
2023/12/27 09:32:27;;;;;;;1.13;0.68;;;17.20;52.50;;;;;;6111354;23;20150;-84
2023/12/27 09:34:55;;;;;;;0.80;0.70;;;17.20;53.40;;;;;;6111874;23;20587;-86
2023/12/27 09:37:22;;;;;;;1.80;0.68;;;17.20;53.00;;;;;;6111079;23;20214;-85
2023/12/27 09:39:49;;;;;;;1.08;0.50;;;17.20;52.50;;;;;;6111156;23;20151;-86
2023/12/27 09:42:17;;;;;;;2.35;0.55;;;17.20;52.90;;;;;;6087205;23;20242;-85
2023/12/27 09:44:44;;;;;;;2.65;0.60;;;17.30;52.00;;;;;;6112106;23;20208;-86
2023/12/27 09:47:23;;;;;;;2.25;0.80;;;17.30;52.70;;;;;;6111582;23;20589;-85
2023/12/27 09:49:52;;;;;;;2.83;0.70;;;17.30;52.80;;;;;;6116595;23;20151;-85
2023/12/27 09:52:19;;;;;;;1.33;0.73;;;17.20;53.00;;;;;;6114793;23;20154;-86
2023/12/27 09:54:46;;;;;;;2.67;1.08;;;17.20;53.00;;;;;;6112231;23;20178;-85
2023/12/27 09:57:13;;;;;;;4.53;0.70;;;17.30;52.40;;;;;;6110393;23;20202;-86
2023/12/27 09:59:40;;;;;;;0.65;0.65;;;17.20;52.70;;;;;;6111550;23;20154;-87
2023/12/27 10:02:13;;;;;;;1.15;0.88;;;17.20;52.40;;;;;;6087729;23;20173;-86
2023/12/27 10:05:09;;;;;;;2.83;0.70;;;17.30;52.80;;;;;;6162136;23;20159;-86
2023/12/27 10:07:40;;;;;;;3.15;0.60;;;17.30;52.80;;;;;;6166328;23;20201;-86
2023/12/27 10:10:08;;;;;;;1.13;0.70;;;17.30;52.30;;;;;;6118385;23;20154;-86
2023/12/27 10:12:40;;;;;;;2.80;1.00;;;17.40;52.70;;;;;;6165772;23;20198;-85
2023/12/27 10:15:12;;;;;;;4.13;0.70;;;17.40;52.40;;;;;;6166499;23;20264;-85
2023/12/27 10:17:41;;;;;;;1.00;0.70;;;17.30;52.10;;;;;;6116638;23;20238;-84
2023/12/27 10:20:08;;;;;;;1.85;0.73;;;17.30;52.70;;;;;;6165051;23;20205;-87
2023/12/27 10:22:34;;;;;;;2.17;0.80;;;17.20;52.80;;;;;;6164870;23;20147;-85
2023/12/27 10:25:06;;;;;;;4.05;0.80;;;17.30;51.70;;;;;;6163474;23;20165;-87
2023/12/27 10:27:38;;;;;;;3.03;0.60;;;17.30;52.70;;;;;;6091614;23;20158;-86
2023/12/27 10:30:13;;;;;;;3.70;0.90;;;17.40;52.60;;;;;;6116698;23;20234;-87
2023/12/27 10:32:40;;;;;;;3.22;0.80;;;17.30;52.90;;;;;;6090914;23;20172;-86
2023/12/27 10:35:10;;;;;;;2.90;0.95;;;17.20;52.80;;;;;;6187869;23;20491;-87
2023/12/27 10:37:39;;;;;;;3.95;0.80;;;17.40;52.80;;;;;;6138284;23;20614;-85
2023/12/27 10:40:06;;;;;;;6.55;0.73;;;17.40;53.70;;;;;;6163121;23;20346;-85
2023/12/27 10:42:36;;;;;;;8.85;1.02;;;17.30;53.50;;;;;;6137275;23;20149;-86
2023/12/27 10:45:06;;;;;;;1.00;0.65;;;17.30;53.20;;;;;;6112351;23;20158;-85
2023/12/27 10:47:36;;;;;;;4.75;1.02;;;17.40;52.90;;;;;;6136234;23;20159;-84
2023/12/27 10:50:12;;;;;;;1.77;0.70;;;17.40;52.80;;;;;;6112256;23;20151;-84
2023/12/27 10:52:42;;;;;;;2.72;0.70;;;17.40;52.70;;;;;;6115159;23;20155;-85
2023/12/27 10:55:13;;;;;;;6.10;0.98;;;17.40;52.80;;;;;;6088055;23;20155;-87
2023/12/27 10:57:39;;;;;;;6.80;0.80;;;17.40;52.80;;;;;;6078385;23;20198;-84
2023/12/27 11:00:10;;;;;;;10.60;1.10;;;17.40;52.80;;;;;;6125997;23;20133;-85
2023/12/27 11:02:38;;;;;;;18.67;1.20;;;17.40;52.80;;;;;;6080225;23;20248;-85
2023/12/27 11:05:06;;;;;;;10.48;0.77;;;17.40;52.50;;;;;;6105403;23;20543;-85
2023/12/27 11:07:36;;;;;;;10.98;1.13;;;17.60;50.80;;;;;;6079309;23;20283;-84
2023/12/27 11:10:05;;;;;;;9.20;0.98;;;17.60;51.70;;;;;;6081667;23;20230;-81
2023/12/27 11:12:33;;;;;;;15.35;1.40;;;17.70;52.00;;;;;;6128976;23;20196;-85
2023/12/27 11:15:02;;;;;;;8.95;1.40;;;17.70;52.20;;;;;;6130291;23;20152;-86
2023/12/27 11:17:38;;;;;;;16.13;1.52;;;17.60;52.10;;;;;;6129690;23;20175;-85
2023/12/27 11:20:19;;;;;;;22.17;1.98;;;17.70;52.20;;;;;;6080445;23;20156;-87
2023/12/27 11:22:48;;;;;;;17.13;1.73;;;17.70;52.60;;;;;;6030384;23;20256;-85
2023/12/27 11:25:14;;;;;;;18.58;1.45;;;17.60;52.30;;;;;;6051509;23;20196;-83
2023/12/27 11:27:51;;;;;;;10.07;1.70;;;17.70;52.30;;;;;;6077421;23;20176;-84
2023/12/27 11:30:50;;;;;;;13.45;1.55;;;17.80;52.50;;;;;;6052052;23;20179;-86
2023/12/27 11:33:36;;;;;;;19.20;1.67;;;17.70;52.60;;;;;;6022398;23;20262;-83
2023/12/27 11:36:07;;;;;;;5.05;1.25;;;17.60;52.60;;;;;;6068298;23;20764;-85
2023/12/27 11:38:33;;;;;;;14.27;1.45;;;17.70;52.50;;;;;;6044510;23;20161;-82
2023/12/27 11:41:00;;;;;;;10.40;1.23;;;17.80;52.30;;;;;;6042950;23;20600;-83
2023/12/27 11:43:57;;;;;;;9.07;1.27;;;17.80;52.50;;;;;;6072790;23;20160;-86
2023/12/27 11:46:34;;;;;;;16.02;1.40;;;17.70;52.50;;;;;;6028309;23;20576;-83
2023/12/27 11:49:04;;;;;;;10.68;1.27;;;17.70;52.60;;;;;;6000375;23;20243;-85
2023/12/27 11:51:33;;;;;;;9.98;1.20;;;17.70;52.70;;;;;;6022755;23;20258;-85
2023/12/27 11:54:03;;;;;;;10.10;1.20;;;17.70;52.30;;;;;;6047806;23;20237;-83
2023/12/27 11:56:30;;;;;;;13.52;1.30;;;17.70;52.70;;;;;;6063698;23;20283;-85
2023/12/27 11:58:56;;;;;;;9.70;1.33;;;17.70;52.60;;;;;;6101582;23;20137;-85
2023/12/27 12:01:40;;;;;;;11.07;1.05;;;17.70;52.30;;;;;;6078908;23;20215;-83
2023/12/27 12:04:31;;;;;;;10.60;1.20;;;17.80;52.10;;;;;;6053170;23;20283;-85
2023/12/27 12:07:30;;;;;;;10.60;1.10;;;17.70;52.00;;;;;;6056766;23;20153;-84
2023/12/27 12:09:56;;;;;;;8.30;1.17;;;17.80;52.30;;;;;;6116046;23;20168;-84
2023/12/27 12:12:23;;;;;;;13.55;1.20;;;17.70;52.30;;;;;;6135903;23;20132;-84
2023/12/27 12:14:52;;;;;;;10.85;1.00;;;17.70;52.40;;;;;;6161364;23;20132;-86
2023/12/27 12:17:22;;;;;;;10.98;1.35;;;17.70;52.50;;;;;;6110339;23;20195;-85
2023/12/27 12:19:49;;;;;;;8.68;0.90;;;17.70;52.60;;;;;;6084650;23;20155;-85
2023/12/27 12:22:15;;;;;;;8.65;1.13;;;17.60;52.60;;;;;;6135017;23;20143;-85
2023/12/27 12:24:42;;;;;;;6.88;0.93;;;17.70;52.70;;;;;;6110770;23;20143;-85
2023/12/27 12:27:10;;;;;;;6.88;0.90;;;17.70;52.60;;;;;;6108645;23;20167;-85
2023/12/27 12:29:40;;;;;;;4.90;0.90;;;17.60;53.00;;;;;;6109814;23;20155;-83
2023/12/27 12:32:07;;;;;;;4.97;0.90;;;17.70;52.80;;;;;;6110135;23;20230;-84
2023/12/27 12:34:51;;;;;;;8.48;1.17;;;17.80;52.70;;;;;;6162467;23;20144;-82
2023/12/27 12:37:27;;;;;;;7.38;1.10;;;17.70;51.90;;;;;;6093378;23;20673;-83
2023/12/27 12:39:53;;;;;;;8.25;1.20;;;17.80;52.40;;;;;;6142499;23;20138;-84
2023/12/27 12:42:19;;;;;;;10.68;1.13;;;17.90;52.20;;;;;;6136644;23;20135;-83
2023/12/27 12:44:45;;;;;;;2.80;0.77;;;17.90;51.60;;;;;;6112243;23;20152;-83
2023/12/27 12:47:11;;;;;;;7.13;0.90;;;18.00;51.40;;;;;;6075389;23;20160;-86
2023/12/27 12:49:37;;;;;;;7.53;1.13;;;18.00;51.90;;;;;;6099295;23;20200;-87
2023/12/27 12:52:05;;;;;;;4.07;0.70;;;18.00;51.70;;;;;;6077989;23;20152;-88
2023/12/27 12:54:33;;;;;;;10.02;1.17;;;18.00;52.00;;;;;;6104910;23;20149;-83
2023/12/27 12:57:03;;;;;;;12.18;1.40;;;18.00;52.10;;;;;;6077059;23;20196;-84
2023/12/27 13:02:21;;;;;;;4.43;1.02;;;17.90;51.90;;;;;;5972605;24;20179;-84
2023/12/27 13:04:53;;;;;;;7.53;0.90;;;17.90;52.30;;;;;;5985155;23;20614;-84
2023/12/27 13:07:28;;;;;;;7.32;1.08;;;17.80;52.60;;;;;;5939003;24;20687;-85